Accueil
METAR-TAF:

METAR-TAF

Aéroports :

Redmond Municipal Airport (Roberts Field)

Redmond, Oregon, États-Unis

latitude: 44-15-15N, longitude: 121-08-59W, altitude: 938 m

Observation

Le bulletin a été fait il y a 23 minutes, à 20:56 UTC
Vent 6 kt de ouest/nord-ouest
Température 19°C
Humidité 32%
Pression 1015 hPa
Visibilité: 16.1 km
Ciel clair
fumée

METAR: KRDM 222056Z 30006KT 10SM FU CLR 19/02 A2998 RMK AO2 SLP145 T01940022 58020

Heure: 14:19 (21:19 UTC)

Prévision

Le bulletin a été fait il y a 3 heures et 58 minutes, à 17:21 UTC
Prévision valable du 22 à 18 UTC au 23 à 18 UTC
Vent 4 kt de direction variable
Visibilité: 10 km
Ciel clair
A partir de 22 à 2100 UTC
Vent 8 kt de nord/nord-ouest
Visibilité: 10 km
Ciel clair
A partir de 23 à 0600 UTC
Vent 4 kt de sud/sud-est
Visibilité: 10 km
Ciel clair

TAF: KRDM 221721Z 2218/2318 VRB04KT P6SM SKC FM222100 33008KT P6SM SKC FM230600 16004KT P6SM SKC

Observations et prévisions météorologiques de plus de 4000 aéroports (messages METAR et TAF).

Les stations disponibles sont représentées par des disques jaunes et rouges sur la carte.

Passer la souris dessus pour voir le nom de la station.

Cliquer dessus pour voir les observations et prévisions météorologiques.

Pour changer de carte: cliquez sur les boutons verts avec une croix noire pour zoomer, sur le bouton vert avec un tiret pour effectuer un zoom arrière, ou sur les flèches vertes pour les cartes adjacentes.


METAR-TAF: